Terminal Aerodrome Forecast
Issued by NWS

Home | Current Version | Previous Version | Text Only | Print | Product List | Glossary Off
Versions: 1 2 3 4 5 6 7 8 9 10 11 12 13 14 15 16 17 18 19 20

000
FTUS43 KMPX 221100
TAFRNH
TAF
KRNH 221136Z 2212/2312 15011KT 4SM -DZ BR OVC007
     FM222100 11011KT 3SM -RASN OVC007
     FM230000 08010KT 2SM -SN OVC005
     FM230900 03013KT 2SM -SN BR OVC004=

USA.gov is the U.S. government's official web portal to all federal, state and local government web resources and services.